Time;durP1;ratioP1;P1;durP2;ratioP2;P2;SDS_P1;SDS_P2;PMS_P1;PMS_P2;Temp;Humidity;BMP_temperature;BMP_pressure;BME280_temperature;BME280_humidity;BME280_pressure;Samples;Min_cycle;Max_cycle;Signal;HPM_P1;HPM_P2
2022/07/23 00:00:04;;;;;;;2.35;1.20;;;15.00;99.90;;;;;;4972427;28;20507;-80
2022/07/23 00:02:29;;;;;;;2.42;1.02;;;15.00;99.90;;;;;;4998189;28;20077;-80
2022/07/23 00:04:55;;;;;;;2.42;1.20;;;15.00;99.90;;;;;;4962171;28;20661;-80
2022/07/23 00:07:21;;;;;;;4.90;1.27;;;15.00;99.90;;;;;;4985258;28;20130;-81
2022/07/23 00:09:47;;;;;;;4.35;1.58;;;15.00;99.90;;;;;;4983507;28;20042;-81
2022/07/23 00:12:12;;;;;;;6.35;1.27;;;15.00;99.90;;;;;;4953556;28;20054;-80
2022/07/23 00:14:38;;;;;;;2.40;1.23;;;14.90;99.90;;;;;;4967916;28;20082;-81
2022/07/23 00:17:04;;;;;;;2.83;1.10;;;14.90;99.90;;;;;;4965219;28;20034;-81
2022/07/23 00:19:29;;;;;;;3.50;1.38;;;14.90;99.90;;;;;;4953375;28;20506;-81
2022/07/23 00:21:55;;;;;;;3.20;1.20;;;14.90;99.90;;;;;;4979233;28;20486;-80
2022/07/23 00:24:21;;;;;;;2.92;1.10;;;14.80;99.90;;;;;;4968219;28;20129;-80
2022/07/23 00:26:47;;;;;;;2.80;1.13;;;14.80;99.90;;;;;;4977694;28;20054;-81
2022/07/23 00:29:13;;;;;;;3.42;1.13;;;14.80;99.90;;;;;;4953545;28;20054;-81
2022/07/23 00:31:38;;;;;;;2.85;1.10;;;14.70;99.90;;;;;;4965777;28;20042;-81
2022/07/23 00:34:07;;;;;;;2.38;1.17;;;14.70;99.90;;;;;;4952492;28;20108;-80
2022/07/23 00:36:32;;;;;;;2.58;1.08;;;14.70;99.90;;;;;;4968004;28;20046;-80
2022/07/23 00:38:58;;;;;;;4.45;1.23;;;14.60;99.90;;;;;;4951523;28;20050;-79
2022/07/23 00:41:24;;;;;;;4.00;1.38;;;14.60;99.90;;;;;;4963076;28;20111;-80
2022/07/23 00:43:50;;;;;;;3.58;1.38;;;14.60;99.90;;;;;;4962445;28;20046;-80
2022/07/23 00:46:22;;;;;;;2.72;1.20;;;14.50;99.90;;;;;;4977991;28;20051;-79
2022/07/23 00:48:48;;;;;;;2.10;1.35;;;14.50;99.90;;;;;;4983949;28;20058;-80
2022/07/23 00:51:17;;;;;;;4.50;1.52;;;14.50;99.90;;;;;;4968895;28;20084;-79
2022/07/23 00:53:46;;;;;;;4.00;1.40;;;14.40;99.90;;;;;;4976718;28;20149;-80
2022/07/23 00:56:12;;;;;;;3.25;1.70;;;14.40;99.90;;;;;;4978672;28;20129;-80
2022/07/23 00:58:41;;;;;;;3.38;1.65;;;14.40;99.90;;;;;;4964141;28;20051;-80
2022/07/23 01:01:07;;;;;;;2.75;1.70;;;14.40;99.90;;;;;;4968182;28;20085;-80
2022/07/23 01:03:36;;;;;;;4.35;1.65;;;14.40;99.90;;;;;;4969897;28;20078;-80
2022/07/23 01:06:01;;;;;;;3.72;1.60;;;14.30;99.90;;;;;;4959418;28;20053;-80
2022/07/23 01:08:27;;;;;;;3.65;1.52;;;14.30;99.90;;;;;;4973226;28;20042;-80
2022/07/23 01:10:53;;;;;;;2.17;1.50;;;14.20;99.90;;;;;;4982616;28;20562;-80
2022/07/23 01:13:19;;;;;;;3.80;1.42;;;14.20;99.90;;;;;;4998275;28;20502;-81
2022/07/23 01:15:45;;;;;;;2.70;1.50;;;14.20;99.90;;;;;;4970388;28;20162;-81
2022/07/23 01:18:12;;;;;;;3.63;1.40;;;14.20;99.90;;;;;;4981191;28;20073;-81
2022/07/23 01:20:38;;;;;;;3.65;1.70;;;14.10;99.90;;;;;;4981329;28;20038;-80
2022/07/23 01:23:04;;;;;;;5.30;1.55;;;14.10;99.90;;;;;;4980765;28;20054;-81
2022/07/23 01:25:29;;;;;;;4.43;1.35;;;14.10;99.90;;;;;;4979919;28;20129;-81
2022/07/23 01:27:55;;;;;;;3.58;1.30;;;14.00;99.90;;;;;;4998130;28;20061;-80
2022/07/23 01:30:21;;;;;;;3.88;1.50;;;14.00;99.90;;;;;;4973396;28;20077;-80
2022/07/23 01:32:47;;;;;;;2.28;1.40;;;14.00;99.90;;;;;;5010027;28;20050;-80
2022/07/23 01:35:12;;;;;;;3.15;1.60;;;14.00;99.90;;;;;;4998943;28;20513;-80
2022/07/23 01:37:38;;;;;;;3.53;2.05;;;14.00;99.90;;;;;;4980951;28;20125;-80
2022/07/23 01:40:05;;;;;;;3.90;2.53;;;14.00;99.90;;;;;;4984686;28;20057;-80
2022/07/23 01:42:31;;;;;;;4.55;2.88;;;14.00;99.90;;;;;;4996500;28;20050;-80
2022/07/23 01:44:57;;;;;;;3.20;2.40;;;13.90;99.90;;;;;;4964221;28;20135;-80
2022/07/23 01:47:22;;;;;;;4.88;2.47;;;13.90;99.90;;;;;;4979396;28;20407;-81
2022/07/23 01:49:48;;;;;;;4.40;3.13;;;13.90;99.90;;;;;;4970759;28;20051;-80
2022/07/23 01:52:14;;;;;;;4.18;3.28;;;13.90;99.90;;;;;;4979662;28;20057;-80
2022/07/23 01:54:40;;;;;;;5.40;3.33;;;13.90;99.90;;;;;;4981315;28;20180;-81
2022/07/23 01:57:06;;;;;;;4.03;3.17;;;13.80;99.90;;;;;;4977618;28;20084;-81
2022/07/23 01:59:32;;;;;;;6.93;3.53;;;13.80;99.90;;;;;;4968223;28;20045;-81
2022/07/23 02:01:58;;;;;;;5.70;3.45;;;13.90;99.90;;;;;;4994963;28;20046;-80
2022/07/23 02:04:25;;;;;;;7.63;3.97;;;13.80;99.90;;;;;;4979487;28;20054;-80
2022/07/23 02:06:52;;;;;;;4.25;3.10;;;13.80;99.90;;;;;;4977676;28;20065;-80
2022/07/23 02:09:21;;;;;;;4.95;3.85;;;13.80;99.90;;;;;;4985955;28;20054;-81
2022/07/23 02:11:47;;;;;;;11.52;4.70;;;13.90;99.90;;;;;;4982219;28;20046;-80
2022/07/23 02:14:12;;;;;;;4.85;3.70;;;13.90;99.90;;;;;;4978912;28;20054;-81
2022/07/23 02:16:38;;;;;;;4.93;3.53;;;13.80;99.90;;;;;;4995188;28;20061;-80
2022/07/23 02:19:04;;;;;;;6.38;3.90;;;13.80;99.90;;;;;;4979238;28;20045;-81
2022/07/23 02:21:30;;;;;;;5.65;4.00;;;13.90;99.90;;;;;;4978432;28;20046;-80
2022/07/23 02:23:57;;;;;;;6.90;3.85;;;13.90;99.90;;;;;;4985886;28;20041;-81
2022/07/23 02:26:22;;;;;;;6.18;3.58;;;13.90;99.90;;;;;;4984671;28;20133;-80
2022/07/23 02:28:48;;;;;;;4.78;3.75;;;13.90;99.90;;;;;;4980844;28;20125;-81
2022/07/23 02:31:17;;;;;;;4.65;3.30;;;14.00;99.90;;;;;;4962814;28;20216;-81
2022/07/23 02:33:42;;;;;;;5.53;3.70;;;14.00;99.90;;;;;;4948758;28;20487;-81
2022/07/23 02:36:08;;;;;;;7.00;3.70;;;13.90;99.90;;;;;;4961356;28;20190;-81
2022/07/23 02:38:34;;;;;;;6.60;3.60;;;14.00;99.90;;;;;;4966292;28;20050;-81
2022/07/23 02:41:00;;;;;;;5.40;3.72;;;14.00;99.90;;;;;;4966626;28;20459;-80
2022/07/23 02:43:25;;;;;;;7.25;3.97;;;13.90;99.90;;;;;;4980083;28;20108;-80
2022/07/23 02:45:51;;;;;;;4.45;3.28;;;14.00;99.90;;;;;;4980496;28;20057;-81
2022/07/23 02:48:17;;;;;;;4.18;2.80;;;13.90;99.90;;;;;;4968345;28;20537;-80
2022/07/23 02:50:42;;;;;;;8.05;3.38;;;13.90;99.90;;;;;;4995526;28;20567;-80
2022/07/23 02:53:08;;;;;;;4.90;3.03;;;13.90;99.90;;;;;;4995066;28;20042;-80
2022/07/23 02:55:34;;;;;;;3.75;2.88;;;13.90;99.90;;;;;;4963102;28;20598;-80
2022/07/23 02:58:00;;;;;;;5.47;3.38;;;13.90;99.90;;;;;;4969428;28;20770;-81
2022/07/23 03:00:25;;;;;;;4.30;3.40;;;13.90;99.90;;;;;;4985175;28;20050;-81
2022/07/23 03:02:51;;;;;;;4.78;3.50;;;13.90;99.90;;;;;;4963624;28;20852;-81
2022/07/23 03:05:17;;;;;;;4.70;2.92;;;13.80;99.90;;;;;;4962568;28;20255;-80
2022/07/23 03:07:42;;;;;;;3.70;2.92;;;13.80;99.90;;;;;;4962369;28;20061;-81
2022/07/23 03:10:11;;;;;;;4.93;2.90;;;13.80;99.90;;;;;;4977677;28;20054;-81
2022/07/23 03:12:36;;;;;;;3.55;2.60;;;13.80;99.90;;;;;;4952144;28;20046;-80
2022/07/23 03:15:03;;;;;;;3.95;2.58;;;13.80;99.90;;;;;;4960874;28;20693;-81
2022/07/23 03:17:28;;;;;;;3.30;2.40;;;13.80;99.90;;;;;;4968377;28;20096;-80
2022/07/23 03:19:57;;;;;;;4.15;2.30;;;13.80;99.90;;;;;;4980061;28;20491;-81
2022/07/23 03:22:22;;;;;;;4.22;2.10;;;13.70;99.90;;;;;;4962560;28;20129;-80
2022/07/23 03:24:54;;;;;;;4.95;2.45;;;13.70;99.90;;;;;;4969022;28;20452;-80
2022/07/23 03:27:21;;;;;;;3.88;1.80;;;13.70;99.90;;;;;;4992929;28;20591;-81
2022/07/23 03:29:46;;;;;;;3.90;1.60;;;13.70;99.90;;;;;;4996525;28;20046;-81
2022/07/23 03:32:12;;;;;;;3.90;1.60;;;13.80;99.90;;;;;;4970463;28;20058;-81
2022/07/23 03:34:38;;;;;;;3.72;1.88;;;13.80;99.90;;;;;;4965688;28;20503;-80
2022/07/23 03:37:04;;;;;;;2.75;1.45;;;13.80;99.90;;;;;;4987322;28;20069;-81
2022/07/23 03:39:30;;;;;;;3.33;1.60;;;13.80;99.90;;;;;;4963837;28;20084;-80
2022/07/23 03:41:56;;;;;;;2.47;1.40;;;13.70;99.90;;;;;;4972173;28;20476;-80
2022/07/23 03:44:21;;;;;;;2.05;1.35;;;13.80;99.90;;;;;;4967044;28;20054;-81
2022/07/23 03:46:47;;;;;;;3.60;1.08;;;13.80;99.90;;;;;;4967925;28;20048;-80
2022/07/23 03:49:13;;;;;;;4.07;1.30;;;13.80;99.90;;;;;;4980638;28;20621;-80
2022/07/23 03:51:39;;;;;;;1.30;1.10;;;13.80;99.90;;;;;;4983362;28;20137;-80
2022/07/23 03:54:04;;;;;;;1.75;1.20;;;13.90;99.90;;;;;;4981189;28;20410;-80
2022/07/23 03:56:30;;;;;;;1.38;1.00;;;13.90;99.90;;;;;;4980699;28;20042;-80
2022/07/23 03:58:56;;;;;;;3.80;1.10;;;13.90;99.90;;;;;;4981906;28;20746;-81
2022/07/23 04:01:22;;;;;;;3.67;1.10;;;13.90;99.90;;;;;;4993358;28;20054;-80
2022/07/23 04:03:48;;;;;;;2.58;1.02;;;14.00;99.90;;;;;;4998657;28;20174;-80
2022/07/23 04:06:13;;;;;;;1.98;0.90;;;14.00;99.90;;;;;;4970030;28;20053;-81
2022/07/23 04:08:42;;;;;;;1.67;0.88;;;14.10;99.90;;;;;;4998362;28;20082;-80
2022/07/23 04:11:08;;;;;;;2.15;1.08;;;14.10;99.90;;;;;;4963368;28;20148;-80
2022/07/23 04:13:33;;;;;;;2.17;0.98;;;14.20;99.90;;;;;;4987259;28;20210;-79
2022/07/23 04:15:59;;;;;;;2.30;0.95;;;14.30;99.90;;;;;;4965571;28;20046;-81
2022/07/23 04:18:25;;;;;;;2.83;1.15;;;14.30;99.90;;;;;;4955713;28;20054;-80
2022/07/23 04:20:52;;;;;;;1.92;0.70;;;14.40;99.90;;;;;;4970887;28;20061;-81
2022/07/23 04:23:17;;;;;;;1.67;0.88;;;14.40;99.90;;;;;;4966244;28;20100;-80
2022/07/23 04:25:43;;;;;;;2.80;0.80;;;14.50;99.90;;;;;;4986594;28;20050;-81
2022/07/23 04:28:12;;;;;;;1.60;0.90;;;14.50;99.90;;;;;;4999286;28;20046;-80
2022/07/23 04:30:38;;;;;;;0.88;0.75;;;14.50;99.90;;;;;;4979837;28;20045;-80
2022/07/23 04:33:06;;;;;;;1.85;0.60;;;14.00;99.90;;;;;;4996287;28;20708;-80
2022/07/23 04:35:33;;;;;;;1.00;0.70;;;14.70;99.90;;;;;;4979748;28;20050;-80
2022/07/23 04:37:59;;;;;;;2.00;0.80;;;14.70;99.90;;;;;;4982690;28;20046;-81
2022/07/23 04:40:25;;;;;;;1.83;0.80;;;14.80;99.90;;;;;;4987356;28;20065;-80
2022/07/23 04:42:51;;;;;;;2.00;0.70;;;15.00;99.90;;;;;;4963348;28;20042;-80
2022/07/23 04:45:16;;;;;;;1.63;0.60;;;15.00;99.90;;;;;;4960966;28;20080;-80
2022/07/23 04:47:42;;;;;;;2.17;0.52;;;15.10;99.90;;;;;;4971684;28;20073;-80
2022/07/23 04:50:08;;;;;;;1.88;0.50;;;15.10;99.90;;;;;;4996153;28;20104;-81
2022/07/23 04:52:34;;;;;;;1.23;0.70;;;15.20;99.90;;;;;;4996143;28;20046;-81
2022/07/23 04:54:59;;;;;;;2.17;0.70;;;15.20;99.90;;;;;;4950511;28;20526;-80
2022/07/23 04:57:25;;;;;;;1.13;0.70;;;15.30;99.90;;;;;;4980414;28;20480;-81
2022/07/23 04:59:51;;;;;;;1.02;0.57;;;15.30;99.90;;;;;;4986610;28;20491;-81
2022/07/23 05:02:17;;;;;;;1.27;0.85;;;15.40;99.90;;;;;;4994479;28;20152;-80
2022/07/23 05:04:43;;;;;;;1.73;0.70;;;15.40;99.90;;;;;;4972272;28;20123;-80
2022/07/23 05:07:08;;;;;;;1.40;0.70;;;15.70;99.90;;;;;;4968040;28;20046;-81
2022/07/23 05:09:34;;;;;;;1.92;0.70;;;15.50;99.90;;;;;;4969928;28;20037;-80
2022/07/23 05:12:00;;;;;;;1.50;0.70;;;15.50;99.90;;;;;;4972844;28;20475;-81
2022/07/23 05:14:26;;;;;;;0.85;0.60;;;15.50;99.90;;;;;;4982402;28;20511;-79
2022/07/23 05:16:52;;;;;;;0.70;0.60;;;15.60;99.90;;;;;;4983886;28;20099;-84
2022/07/23 05:19:17;;;;;;;0.85;0.70;;;15.60;99.90;;;;;;4988443;28;20084;-82
2022/07/23 05:21:43;;;;;;;1.10;0.50;;;15.50;99.90;;;;;;4956917;28;20085;-82
2022/07/23 05:24:09;;;;;;;1.40;0.60;;;15.60;99.90;;;;;;4982693;28;20140;-84
2022/07/23 05:26:34;;;;;;;1.17;0.70;;;15.60;99.90;;;;;;4973113;28;20068;-83
2022/07/23 05:29:00;;;;;;;1.42;0.63;;;15.60;99.90;;;;;;4968347;28;20049;-84
2022/07/23 05:31:26;;;;;;;2.42;0.60;;;15.70;99.90;;;;;;4986388;28;20052;-84
2022/07/23 05:33:52;;;;;;;0.80;0.50;;;15.30;99.90;;;;;;4970055;28;20052;-84
2022/07/23 05:36:17;;;;;;;2.00;0.70;;;15.80;99.90;;;;;;4971627;28;20583;-89
2022/07/23 05:38:43;;;;;;;1.13;0.75;;;15.80;99.90;;;;;;4991723;28;20041;-84
2022/07/23 05:41:09;;;;;;;0.80;0.60;;;15.80;99.90;;;;;;4985819;28;20041;-83
2022/07/23 05:43:35;;;;;;;1.15;0.70;;;15.90;99.90;;;;;;5000490;28;20084;-91
2022/07/23 05:46:00;;;;;;;0.68;0.50;;;15.90;99.90;;;;;;4969578;28;20093;-87
2022/07/23 05:48:26;;;;;;;1.50;0.63;;;16.00;99.90;;;;;;4973633;28;20069;-82
2022/07/23 05:50:52;;;;;;;2.97;0.65;;;16.00;99.90;;;;;;4985034;28;20395;-83
2022/07/23 05:53:18;;;;;;;1.48;0.80;;;16.00;99.90;;;;;;4984829;28;20108;-81
2022/07/23 05:55:44;;;;;;;1.58;0.90;;;16.10;99.90;;;;;;4985557;28;20045;-81
2022/07/23 05:58:10;;;;;;;1.33;0.70;;;16.20;99.90;;;;;;4999573;28;20084;-84
2022/07/23 06:00:35;;;;;;;1.10;0.60;;;16.30;99.90;;;;;;4974842;28;20045;-83
2022/07/23 06:03:01;;;;;;;1.10;0.52;;;16.40;99.90;;;;;;4973079;28;20048;-82
2022/07/23 06:05:27;;;;;;;1.83;0.70;;;16.50;99.90;;;;;;5003326;28;20045;-83
2022/07/23 06:07:54;;;;;;;1.63;0.80;;;16.60;99.90;;;;;;4972885;28;20054;-82
2022/07/23 06:10:20;;;;;;;3.03;0.52;;;16.70;99.90;;;;;;4957904;28;20068;-83
2022/07/23 06:12:45;;;;;;;2.30;0.70;;;16.70;99.90;;;;;;4998399;28;20413;-83
2022/07/23 06:15:12;;;;;;;1.38;0.70;;;16.80;99.90;;;;;;4984295;28;20136;-89
2022/07/23 06:17:41;;;;;;;0.60;0.60;;;16.80;99.90;;;;;;4972348;28;20445;-82
2022/07/23 06:20:08;;;;;;;2.60;0.85;;;16.90;99.90;;;;;;4985578;28;20367;-83
2022/07/23 06:22:35;;;;;;;1.48;0.50;;;16.90;99.90;;;;;;4983513;28;20042;-84
2022/07/23 06:25:03;;;;;;;3.38;0.70;;;16.90;99.90;;;;;;4984159;28;20041;-82
2022/07/23 06:27:32;;;;;;;1.60;0.70;;;16.90;99.90;;;;;;4974957;28;20054;-84
2022/07/23 06:29:57;;;;;;;2.50;0.70;;;17.00;99.90;;;;;;4974891;28;20052;-84
2022/07/23 06:32:23;;;;;;;2.60;0.73;;;17.10;99.90;;;;;;4988876;28;20058;-84
2022/07/23 06:34:51;;;;;;;2.22;0.60;;;17.20;99.90;;;;;;4975397;28;20064;-84
2022/07/23 06:37:17;;;;;;;1.88;0.70;;;17.20;99.90;;;;;;4974125;28;20051;-85
2022/07/23 06:39:43;;;;;;;2.13;0.60;;;17.30;99.90;;;;;;4974664;28;20045;-83
2022/07/23 06:42:10;;;;;;;1.55;0.60;;;17.40;99.90;;;;;;4988626;28;20491;-83
2022/07/23 06:44:36;;;;;;;1.00;0.63;;;17.50;99.90;;;;;;4970323;28;20633;-83
2022/07/23 06:47:01;;;;;;;1.63;0.70;;;17.50;99.90;;;;;;4985694;28;20171;-81
2022/07/23 06:49:27;;;;;;;0.80;0.57;;;17.60;99.90;;;;;;5001247;28;20045;-83
2022/07/23 06:51:53;;;;;;;0.90;0.57;;;17.70;99.90;;;;;;4985287;28;20061;-82
2022/07/23 06:54:19;;;;;;;1.75;0.75;;;17.60;99.90;;;;;;4990717;28;20045;-84
2022/07/23 06:56:44;;;;;;;1.83;0.80;;;17.70;99.90;;;;;;4986389;28;20044;-82
2022/07/23 06:59:10;;;;;;;1.63;0.60;;;17.80;99.90;;;;;;4968745;28;20054;-82
2022/07/23 07:01:36;;;;;;;1.50;0.70;;;17.80;99.90;;;;;;4983952;28;20124;-82
2022/07/23 07:04:02;;;;;;;1.63;0.70;;;17.80;99.90;;;;;;4971188;28;20148;-84
2022/07/23 07:06:27;;;;;;;0.70;0.60;;;17.80;99.90;;;;;;4984900;28;20049;-84
2022/07/23 07:08:56;;;;;;;2.70;0.70;;;17.80;99.90;;;;;;4970189;28;20499;-84
2022/07/23 07:11:23;;;;;;;1.38;0.80;;;17.90;99.90;;;;;;4986950;28;20060;-83
2022/07/23 07:13:50;;;;;;;1.67;0.70;;;17.60;99.90;;;;;;4988792;28;20125;-84
2022/07/23 07:16:15;;;;;;;1.77;0.70;;;17.90;99.90;;;;;;4999429;28;20037;-88
2022/07/23 07:18:41;;;;;;;1.90;0.77;;;17.90;99.90;;;;;;4989129;28;20154;-84
2022/07/23 07:21:07;;;;;;;1.27;0.57;;;17.90;99.90;;;;;;4969535;28;20041;-83
2022/07/23 07:23:33;;;;;;;1.15;0.63;;;18.00;99.90;;;;;;4986865;28;20107;-84
2022/07/23 07:25:58;;;;;;;1.95;0.77;;;18.00;99.90;;;;;;4957384;28;20083;-84
2022/07/23 07:28:24;;;;;;;1.10;0.95;;;18.00;99.90;;;;;;4969109;28;20077;-84
2022/07/23 07:30:50;;;;;;;1.15;0.70;;;18.10;99.90;;;;;;4971563;28;20045;-82
2022/07/23 07:33:16;;;;;;;1.42;0.60;;;18.00;99.90;;;;;;4988018;28;20053;-83
2022/07/23 07:35:41;;;;;;;1.17;0.80;;;18.00;99.90;;;;;;5008067;28;20622;-81
2022/07/23 07:38:07;;;;;;;1.27;0.50;;;18.00;99.90;;;;;;4988278;28;20505;-81
2022/07/23 07:40:33;;;;;;;1.38;0.40;;;17.90;99.90;;;;;;4972130;28;20053;-84
2022/07/23 07:42:59;;;;;;;0.93;0.50;;;17.80;99.90;;;;;;4990832;28;20473;-83
2022/07/23 07:45:25;;;;;;;2.80;0.98;;;17.80;99.90;;;;;;4961237;28;20056;-86
2022/07/23 07:47:52;;;;;;;1.60;0.70;;;17.80;99.90;;;;;;4983447;28;20055;-83
2022/07/23 07:50:19;;;;;;;0.63;0.40;;;17.90;99.90;;;;;;4988787;28;20053;-84
2022/07/23 07:52:45;;;;;;;1.10;0.60;;;17.90;99.90;;;;;;5012119;28;20046;-82
2022/07/23 07:55:11;;;;;;;1.58;0.73;;;18.00;99.90;;;;;;4984311;28;20080;-84
2022/07/23 07:57:38;;;;;;;2.65;0.60;;;18.10;99.90;;;;;;4990788;28;20475;-82
2022/07/23 08:00:07;;;;;;;1.17;0.70;;;18.20;99.90;;;;;;4998839;28;20494;-83
2022/07/23 08:02:44;;;;;;;4.03;0.85;;;18.30;99.90;;;;;;4979569;28;20061;-83
2022/07/23 08:05:10;;;;;;;1.00;0.60;;;18.30;99.90;;;;;;4985342;28;20140;-83
2022/07/23 08:07:38;;;;;;;1.67;0.70;;;18.30;99.90;;;;;;4991228;28;20113;-82
2022/07/23 08:10:04;;;;;;;1.85;0.60;;;18.40;99.90;;;;;;4992467;28;20061;-82
2022/07/23 08:12:41;;;;;;;2.85;0.90;;;18.40;99.90;;;;;;4969825;28;20140;-81
2022/07/23 08:15:09;;;;;;;1.33;0.70;;;18.40;99.90;;;;;;4992984;28;20552;-83
2022/07/23 08:17:38;;;;;;;3.25;0.70;;;18.50;99.90;;;;;;4995713;28;20129;-81
2022/07/23 08:20:05;;;;;;;2.85;0.80;;;18.50;99.90;;;;;;4988150;28;20101;-81
2022/07/23 08:22:43;;;;;;;1.95;0.70;;;18.60;99.90;;;;;;4988422;28;20498;-83
2022/07/23 08:25:10;;;;;;;1.85;0.70;;;18.60;99.90;;;;;;5005140;28;20077;-84
2022/07/23 08:27:35;;;;;;;0.98;0.60;;;18.50;99.90;;;;;;5005041;28;20046;-83
2022/07/23 08:30:01;;;;;;;1.40;0.85;;;17.90;99.90;;;;;;4980964;28;20061;-91
2022/07/23 08:32:27;;;;;;;1.42;0.70;;;18.50;99.90;;;;;;5010893;28;20562;-87
2022/07/23 08:34:53;;;;;;;2.75;1.00;;;18.60;99.90;;;;;;4974682;28;20053;-84
2022/07/23 08:37:19;;;;;;;1.50;0.73;;;18.50;99.90;;;;;;4973636;28;20505;-82
2022/07/23 08:39:47;;;;;;;1.48;0.73;;;18.40;99.90;;;;;;4973469;28;20041;-81
2022/07/23 08:42:17;;;;;;;1.95;0.60;;;18.50;99.90;;;;;;4978848;28;20260;-82
2022/07/23 08:44:46;;;;;;;2.08;0.70;;;18.40;99.90;;;;;;4977731;28;20058;-82
2022/07/23 08:47:15;;;;;;;2.35;0.80;;;18.40;99.90;;;;;;4987344;28;20050;-83
2022/07/23 08:49:41;;;;;;;3.00;0.90;;;18.40;99.90;;;;;;4974859;28;20047;-82
2022/07/23 08:52:07;;;;;;;3.63;1.00;;;18.40;99.90;;;;;;4991574;28;20126;-83
2022/07/23 08:54:34;;;;;;;2.80;1.05;;;18.50;99.90;;;;;;4984618;28;20112;-82
2022/07/23 08:57:00;;;;;;;1.98;1.00;;;18.50;99.90;;;;;;4980689;28;20052;-83
2022/07/23 08:59:26;;;;;;;1.45;0.80;;;18.30;99.90;;;;;;4973315;28;20054;-83
2022/07/23 09:01:52;;;;;;;2.72;1.00;;;18.60;99.90;;;;;;4988342;28;20132;-84
2022/07/23 09:04:18;;;;;;;3.08;0.77;;;18.60;99.90;;;;;;4987641;28;20133;-84
2022/07/23 09:06:53;;;;;;;1.95;0.85;;;18.60;99.90;;;;;;4998477;28;20533;-85
2022/07/23 09:09:20;;;;;;;2.80;0.90;;;18.70;99.90;;;;;;4984663;28;20084;-84
2022/07/23 09:12:03;;;;;;;2.05;0.90;;;18.90;99.90;;;;;;4999115;28;20107;-84
2022/07/23 09:14:44;;;;;;;2.13;0.80;;;19.00;99.90;;;;;;4987081;28;20051;-82
2022/07/23 09:17:17;;;;;;;1.00;0.70;;;19.20;99.90;;;;;;4987017;28;20049;-91
2022/07/23 09:19:49;;;;;;;2.28;0.88;;;19.30;99.90;;;;;;5003547;28;20046;-93
2022/07/23 09:22:20;;;;;;;1.75;1.20;;;19.40;99.90;;;;;;4997221;28;20042;-90
2022/07/23 09:25:23;;;;;;;1.40;0.80;;;19.60;99.90;;;;;;4998431;28;20386;-94
2022/07/23 09:28:02;;;;;;;2.17;0.77;;;19.30;99.90;;;;;;4975653;28;20498;-91
2022/07/23 09:30:50;;;;;;;2.70;0.80;;;19.90;99.90;;;;;;4999127;28;20054;-93
2022/07/23 09:33:24;;;;;;;2.17;0.80;;;20.00;99.90;;;;;;4996825;28;20053;-86
2022/07/23 09:35:54;;;;;;;2.50;0.93;;;20.30;99.90;;;;;;4990681;28;20050;-85
2022/07/23 09:38:24;;;;;;;2.35;0.80;;;20.70;99.90;;;;;;4986493;28;20054;-87
2022/07/23 09:41:15;;;;;;;2.80;1.48;;;20.90;99.90;;;;;;4982976;28;20469;-86
2022/07/23 09:43:40;;;;;;;4.07;0.90;;;20.70;99.90;;;;;;5002891;28;20039;-87
2022/07/23 09:46:24;;;;;;;3.45;0.75;;;21.20;99.90;;;;;;4984173;28;20053;-80
2022/07/23 09:48:56;;;;;;;1.67;0.70;;;21.30;99.90;;;;;;4991591;28;20049;-83
2022/07/23 09:51:35;;;;;;;2.22;0.82;;;21.30;99.90;;;;;;4999700;28;20089;-84
2022/07/23 09:54:01;;;;;;;2.03;0.98;;;21.30;99.90;;;;;;4982957;28;20119;-84
2022/07/23 09:56:28;;;;;;;1.95;0.93;;;21.30;99.90;;;;;;4967910;28;20045;-83
2022/07/23 10:01:51;;;;;;;1.13;0.73;;;21.30;99.90;;;;;;4992998;28;20054;-84
2022/07/23 10:04:18;;;;;;;1.20;0.70;;;21.30;99.90;;;;;;5001320;28;20084;-83
2022/07/23 10:06:45;;;;;;;1.15;0.60;;;21.20;99.90;;;;;;4966908;28;20179;-83
2022/07/23 10:09:15;;;;;;;1.55;0.75;;;21.30;99.90;;;;;;4986540;28;20475;-84
2022/07/23 10:11:42;;;;;;;2.10;0.60;;;21.40;99.90;;;;;;5000271;28;20037;-85
2022/07/23 10:14:08;;;;;;;1.05;0.60;;;21.40;99.90;;;;;;4990424;28;20050;-84
2022/07/23 10:16:34;;;;;;;1.60;0.82;;;21.50;99.90;;;;;;4998398;28;20489;-84
2022/07/23 10:19:00;;;;;;;1.25;0.60;;;21.60;99.90;;;;;;4972002;28;20046;-82
2022/07/23 10:21:47;;;;;;;1.70;0.57;;;22.00;99.90;;;;;;4973122;28;20046;-84
2022/07/23 10:24:39;;;;;;;2.15;0.70;;;22.40;99.90;;;;;;4988795;28;20125;-82
2022/07/23 10:27:20;;;;;;;0.98;0.60;;;22.80;99.90;;;;;;4965027;28;20565;-88
2022/07/23 10:30:06;;;;;;;2.88;0.77;;;22.90;99.90;;;;;;4990863;28;20491;-88
2022/07/23 10:32:51;;;;;;;1.30;0.63;;;22.90;99.90;;;;;;4983060;28;20533;-79
2022/07/23 10:35:28;;;;;;;1.17;0.57;;;22.60;99.90;;;;;;5000798;28;20053;-81
2022/07/23 10:38:01;;;;;;;2.05;0.68;;;22.50;99.90;;;;;;4997695;28;20049;-80
2022/07/23 10:40:28;;;;;;;1.45;0.77;;;22.50;99.90;;;;;;4982553;28;20050;-80
2022/07/23 10:42:59;;;;;;;1.80;0.70;;;22.60;99.90;;;;;;4989442;28;20085;-82
2022/07/23 10:45:31;;;;;;;1.75;0.70;;;22.80;99.90;;;;;;4987347;28;20050;-82
2022/07/23 10:48:21;;;;;;;1.23;0.70;;;23.00;99.90;;;;;;4980790;28;20071;-83
2022/07/23 10:51:06;;;;;;;0.90;0.63;;;22.90;99.90;;;;;;4981581;28;20124;-83
2022/07/23 10:54:20;;;;;;;3.85;0.85;;;23.00;99.90;;;;;;5001811;28;20096;-81
2022/07/23 10:56:57;;;;;;;0.98;0.68;;;23.20;99.90;;;;;;4950450;28;20074;-82
2022/07/23 10:59:24;;;;;;;1.77;0.70;;;23.50;99.90;;;;;;4997813;28;20076;-83
2022/07/23 11:01:50;;;;;;;1.80;0.90;;;23.40;99.90;;;;;;4988696;28;20440;-84
2022/07/23 11:04:19;;;;;;;1.50;0.55;;;23.60;99.90;;;;;;4998795;28;20057;-82
2022/07/23 11:06:48;;;;;;;1.67;0.60;;;23.50;99.90;;;;;;4965735;28;20069;-81
2022/07/23 11:09:38;;;;;;;1.13;0.70;;;23.90;99.90;;;;;;4998508;28;20415;-83
2022/07/23 11:12:13;;;;;;;0.75;0.50;;;24.30;99.90;;;;;;4984260;28;20050;-82
2022/07/23 11:15:00;;;;;;;1.77;0.50;;;24.10;99.90;;;;;;4995503;28;20060;-85
2022/07/23 11:17:30;;;;;;;1.45;0.70;;;24.30;99.90;;;;;;4997537;28;20053;-84
2022/07/23 11:20:13;;;;;;;2.22;0.60;;;24.50;99.90;;;;;;4974729;28;20045;-83
2022/07/23 11:22:42;;;;;;;1.92;0.50;;;25.10;99.30;;;;;;5006205;28;20054;-85
2022/07/23 11:25:09;;;;;;;0.65;0.55;;;25.00;99.60;;;;;;4989214;28;20050;-83
2022/07/23 11:27:42;;;;;;;3.45;0.70;;;25.20;99.50;;;;;;4957466;28;20046;-84
2022/07/23 11:30:11;;;;;;;1.20;0.50;;;25.20;98.70;;;;;;4990772;28;20077;-84
2022/07/23 11:32:42;;;;;;;2.08;0.80;;;25.30;98.70;;;;;;4969653;28;20047;-84
2022/07/23 11:35:27;;;;;;;0.75;0.50;;;24.50;98.50;;;;;;4970396;28;20687;-84
2022/07/23 11:38:09;;;;;;;1.23;0.60;;;25.10;97.20;;;;;;4982401;28;20104;-84
2022/07/23 11:40:35;;;;;;;2.90;0.63;;;24.80;98.30;;;;;;4989560;28;20047;-84
2022/07/23 11:43:03;;;;;;;2.42;0.80;;;24.30;98.60;;;;;;4966012;28;20066;-84
2022/07/23 11:45:42;;;;;;;1.80;0.75;;;24.20;99.10;;;;;;4991322;28;20058;-84
2022/07/23 11:48:30;;;;;;;1.65;0.70;;;24.40;98.80;;;;;;4981072;28;20050;-83
2022/07/23 11:50:56;;;;;;;1.50;0.57;;;24.50;98.30;;;;;;4993432;28;20107;-84
2022/07/23 11:53:33;;;;;;;0.90;0.65;;;24.70;98.50;;;;;;4992327;28;20129;-84
2022/07/23 11:56:10;;;;;;;1.13;0.70;;;24.70;98.30;;;;;;4983330;28;20054;-84
2022/07/23 11:58:36;;;;;;;1.88;0.60;;;24.70;98.30;;;;;;5003600;28;20131;-83
2022/07/23 12:01:03;;;;;;;1.05;0.60;;;24.70;98.40;;;;;;4986134;28;20053;-84
2022/07/23 12:03:29;;;;;;;1.42;0.70;;;25.00;98.60;;;;;;4999367;28;20038;-84
2022/07/23 12:05:59;;;;;;;1.75;0.70;;;25.30;98.40;;;;;;4970286;28;20080;-84
2022/07/23 12:08:25;;;;;;;1.65;0.70;;;25.70;97.90;;;;;;4985915;28;20050;-83
2022/07/23 12:10:51;;;;;;;2.25;0.90;;;25.80;97.50;;;;;;4992937;28;20046;-84
2022/07/23 12:13:20;;;;;;;1.60;0.80;;;26.00;97.50;;;;;;4991888;28;20051;-85
2022/07/23 12:15:56;;;;;;;2.63;1.10;;;25.90;97.00;;;;;;5000889;28;20050;-84
2022/07/23 12:18:24;;;;;;;2.88;0.77;;;26.10;96.90;;;;;;4983531;28;20042;-84
2022/07/23 12:20:56;;;;;;;1.33;0.73;;;26.30;96.60;;;;;;5007890;28;20136;-82
2022/07/23 12:23:25;;;;;;;2.72;0.93;;;26.50;96.30;;;;;;5024851;28;20050;-84
2022/07/23 12:25:54;;;;;;;1.27;0.70;;;26.70;95.80;;;;;;4999500;28;20511;-85
2022/07/23 12:28:32;;;;;;;1.20;0.65;;;26.60;95.60;;;;;;4999223;28;20039;-84
2022/07/23 12:30:58;;;;;;;1.60;0.65;;;26.50;95.30;;;;;;5004112;28;20054;-81
2022/07/23 12:33:32;;;;;;;1.40;0.60;;;26.70;95.50;;;;;;4985444;28;20572;-80
2022/07/23 12:36:00;;;;;;;3.03;0.60;;;26.80;95.00;;;;;;4984450;28;20043;-80
2022/07/23 12:38:28;;;;;;;2.17;0.68;;;26.70;94.70;;;;;;4990647;28;20734;-80
2022/07/23 12:40:55;;;;;;;1.55;0.70;;;26.70;94.80;;;;;;4983302;28;20181;-80
2022/07/23 12:43:30;;;;;;;2.10;0.70;;;26.50;94.90;;;;;;4985040;28;20110;-82
2022/07/23 12:46:02;;;;;;;1.58;0.80;;;26.70;94.90;;;;;;4998346;28;20050;-79
2022/07/23 12:48:37;;;;;;;1.83;0.70;;;27.00;94.50;;;;;;5000999;28;20137;-78
2022/07/23 12:51:03;;;;;;;3.38;0.82;;;27.20;94.30;;;;;;4991549;28;20046;-78
2022/07/23 12:53:30;;;;;;;1.15;0.60;;;27.10;94.40;;;;;;4999271;28;20546;-77
2022/07/23 12:56:11;;;;;;;1.05;0.65;;;27.20;94.30;;;;;;4983256;28;20392;-77